Time;durP1;ratioP1;P1;durP2;ratioP2;P2;SDS_P1;SDS_P2;PMS_P1;PMS_P2;Temp;Humidity;BMP_temperature;BMP_pressure;BME280_temperature;BME280_humidity;BME280_pressure;Samples;Min_cycle;Max_cycle;Signal;HPM_P1;HPM_P2
2022/05/08 00:01:46;;;;;;;;;27.00;22.00;;;;;16.87;57.61;102032.25;5118470;27;45302;-52
2022/05/08 00:04:11;;;;;;;;;25.67;23.00;;;;;16.86;58.69;102038.63;5117821;27;46199;-54
2022/05/08 00:06:36;;;;;;;;;32.33;26.00;;;;;16.84;58.74;102034.41;5117869;27;45333;-53
2022/05/08 00:09:02;;;;;;;;;21.67;18.67;;;;;16.73;58.50;102019.38;5117764;27;45405;-54
2022/05/08 00:11:27;;;;;;;;;24.00;18.33;;;;;16.79;58.84;102037.56;5117931;27;45439;-52
2022/05/08 00:13:53;;;;;;;;;25.00;21.67;;;;;16.69;57.97;102023.34;5117805;27;46857;-46
2022/05/08 00:16:18;;;;;;;;;22.33;20.00;;;;;16.78;58.17;102035.03;5099575;27;45340;-53
2022/05/08 00:18:44;;;;;;;;;21.67;21.00;;;;;16.75;58.20;102029.97;5118092;27;45262;-50
2022/05/08 00:21:09;;;;;;;;;26.33;19.67;;;;;16.73;58.76;102031.94;5118329;27;45321;-47
2022/05/08 00:23:34;;;;;;;;;21.00;18.33;;;;;16.69;57.30;102031.41;5117841;27;46248;-55
2022/05/08 00:26:00;;;;;;;;;22.00;22.00;;;;;16.66;58.79;102027.19;5118068;27;45397;-44
2022/05/08 00:28:25;;;;;;;;;26.33;19.33;;;;;16.64;58.13;102028.31;5118067;27;45372;-52
2022/05/08 00:30:51;;;;;;;;;23.33;17.67;;;;;16.59;59.20;102025.28;5119300;27;45502;-51
2022/05/08 00:33:16;;;;;;;;;18.33;17.00;;;;;16.44;59.09;101998.13;5121079;27;46841;-52
2022/05/08 00:35:42;;;;;;;;;23.33;20.00;;;;;16.58;58.99;102024.44;5121250;27;45368;-52
2022/05/08 00:38:08;;;;;;;;;21.67;17.67;;;;;16.57;59.11;102024.59;5121447;27;45493;-52
2022/05/08 00:40:35;;;;;;;;;21.33;17.00;;;;;16.49;58.94;102013.78;5121360;27;45325;-54
2022/05/08 00:43:32;;;;;;;;;26.67;19.67;;;;;16.51;58.59;102023.34;5121051;27;46076;-53
2022/05/08 00:46:05;;;;;;;;;22.00;17.33;;;;;16.49;58.87;102027.22;5121005;27;45210;-56
2022/05/08 00:48:32;;;;;;;;;25.33;22.00;;;;;16.46;59.16;102026.50;5121157;27;45394;-53
2022/05/08 00:50:59;;;;;;;;;24.00;19.33;;;;;16.43;59.69;102025.97;5120849;27;45346;-54
2022/05/08 00:53:26;;;;;;;;;22.00;18.33;;;;;16.42;58.80;102029.66;5102063;27;48345;-52
2022/05/08 00:55:53;;;;;;;;;23.33;20.00;;;;;16.39;58.94;102025.44;5120596;27;45442;-55
2022/05/08 00:58:19;;;;;;;;;22.33;15.33;;;;;16.37;59.42;102024.75;5120510;27;45406;-55
2022/05/08 01:00:45;;;;;;;;;18.00;15.33;;;;;16.34;59.85;102032.25;5120639;27;45398;-56
2022/05/08 01:03:11;;;;;;;;;21.00;19.67;;;;;16.31;59.75;102033.44;5120269;27;47078;-54
2022/05/08 01:05:43;;;;;;;;;20.33;16.67;;;;;16.25;59.00;102028.66;5120407;27;45418;-54
2022/05/08 01:08:11;;;;;;;;;24.33;17.33;;;;;16.26;59.90;102042.91;5120448;27;45317;-54
2022/05/08 01:10:39;;;;;;;;;25.67;22.00;;;;;16.20;59.97;102037.16;5120520;27;45508;-54
2022/05/08 01:13:05;;;;;;;;;19.33;19.00;;;;;16.17;60.44;102032.09;5120066;27;46360;-54
2022/05/08 01:15:42;;;;;;;;;24.33;20.00;;;;;16.11;59.89;102021.13;5120051;27;45365;-41
2022/05/08 01:18:08;;;;;;;;;22.67;21.67;;;;;16.13;60.44;102036.06;5120374;27;45298;-52
2022/05/08 01:20:34;;;;;;;;;28.00;21.33;;;;;16.11;60.43;102037.22;5120341;27;45432;-52
2022/05/08 01:23:04;;;;;;;;;20.33;19.00;;;;;16.08;60.04;102033.00;5120178;27;46185;-52
2022/05/08 01:25:30;;;;;;;;;24.00;20.00;;;;;15.93;60.15;102007.69;5120148;27;45223;-54
2022/05/08 01:27:55;;;;;;;;;18.33;15.33;;;;;16.01;60.53;102023.00;5120296;27;45271;-53
2022/05/08 01:30:22;;;;;;;;;24.00;19.00;;;;;15.97;60.66;102022.50;5120432;27;45387;-54
2022/05/08 01:32:48;;;;;;;;;22.00;21.33;;;;;15.94;60.19;102020.94;5119832;27;45393;-53
2022/05/08 01:35:13;;;;;;;;;22.33;20.00;;;;;15.93;60.51;102021.09;5119209;27;45425;-47
2022/05/08 01:37:39;;;;;;;;;19.67;19.00;;;;;15.90;60.49;102021.41;5120151;27;45248;-54
2022/05/08 01:40:05;;;;;;;;;21.00;19.67;;;;;15.85;60.96;102021.00;5120219;27;45419;-46
2022/05/08 01:42:30;;;;;;;;;25.00;20.00;;;;;15.84;60.91;102036.25;5118968;27;46241;-49
2022/05/08 01:44:55;;;;;;;;;23.33;17.33;;;;;15.82;60.58;102035.56;5119573;27;45346;-54
2022/05/08 01:50:05;;;;;;;;;24.67;21.67;;;;;15.75;60.84;102028.25;5120099;27;45343;-53
2022/05/08 01:52:32;;;;;;;;;20.33;13.67;;;;;15.73;61.14;102024.88;5118715;27;45420;-48
2022/05/08 01:54:57;;;;;;;;;21.67;18.00;;;;;15.73;60.87;102025.72;5119538;27;45361;-50
2022/05/08 01:57:23;;;;;;;;;23.00;20.00;;;;;15.68;60.85;102020.81;5119847;27;45326;-50
2022/05/08 01:59:48;;;;;;;;;20.33;18.00;;;;;15.64;61.22;102035.53;5119669;27;45405;-51
2022/05/08 02:02:13;;;;;;;;;23.33;19.00;;;;;15.59;61.15;102027.03;5101043;27;45984;-52
2022/05/08 02:04:40;;;;;;;;;18.33;18.00;;;;;15.58;61.68;102044.09;5119390;27;45318;-51
2022/05/08 02:07:05;;;;;;;;;22.67;19.33;;;;;15.56;61.29;102034.53;5119872;27;45448;-52
2022/05/08 02:09:31;;;;;;;;;26.33;18.67;;;;;15.53;62.02;102029.47;5119665;27;45359;-43
2022/05/08 02:11:56;;;;;;;;;22.00;19.33;;;;;15.50;62.09;102027.91;5119406;27;45467;-50
2022/05/08 02:14:21;;;;;;;;;25.00;20.67;;;;;15.49;61.99;102026.22;5119390;27;45367;-52
2022/05/08 02:16:47;;;;;;;;;21.67;20.67;;;;;15.47;61.51;102022.88;5119529;27;45368;-54
2022/05/08 02:19:12;;;;;;;;;29.00;18.33;;;;;15.43;61.05;102025.00;5119447;27;45516;-53
2022/05/08 02:21:38;;;;;;;;;19.00;17.00;;;;;15.42;61.77;102025.13;5119284;27;46879;-53
2022/05/08 02:24:03;;;;;;;;;22.00;22.00;;;;;15.41;61.28;102031.47;5119334;27;45499;-49
2022/05/08 02:26:28;;;;;;;;;25.67;21.67;;;;;15.38;62.13;102029.06;5119516;27;45428;-53
2022/05/08 02:28:54;;;;;;;;;24.33;22.33;;;;;15.38;61.94;102029.06;5119464;27;45237;-51
2022/05/08 02:31:19;;;;;;;;;23.67;19.00;;;;;15.36;62.16;102033.75;5118927;27;46852;-49
2022/05/08 02:33:45;;;;;;;;;30.67;26.33;;;;;15.33;62.04;102034.03;5119153;27;45349;-53
2022/05/08 02:36:10;;;;;;;;;22.67;22.00;;;;;15.23;61.90;102034.09;5119170;27;45311;-48
2022/05/08 02:38:38;;;;;;;;;33.33;23.67;;;;;15.30;62.99;102045.09;5119382;27;46084;-54
2022/05/08 02:41:03;;;;;;;;;30.00;23.33;;;;;15.23;62.89;102028.72;5118797;27;46357;-49
2022/05/08 02:43:29;;;;;;;;;28.00;23.67;;;;;15.26;62.85;102035.66;5119142;27;45419;-44
2022/05/08 02:45:59;;;;;;;;;24.33;22.00;;;;;15.25;62.56;102028.56;5119143;27;45341;-52
2022/05/08 02:48:25;;;;;;;;;28.00;21.67;;;;;15.22;62.88;102038.59;5119986;27;45325;-52
2022/05/08 02:50:50;;;;;;;;;29.33;24.33;;;;;15.14;62.90;102035.81;5119030;27;46159;-47
2022/05/08 02:53:16;;;;;;;;;26.33;22.67;;;;;15.18;63.01;102039.03;5118024;27;45322;-52
2022/05/08 02:58:34;;;;;;;;;24.33;21.00;;;;;15.13;62.29;102052.88;5118836;27;45307;-53
2022/05/08 03:01:06;;;;;;;;;28.67;22.00;;;;;15.10;61.67;102042.44;5118647;27;46298;-50
2022/05/08 03:03:32;;;;;;;;;32.00;25.00;;;;;15.05;62.59;102050.06;5118542;27;45438;-51
2022/05/08 03:05:57;;;;;;;;;32.33;26.33;;;;;15.03;63.00;102054.72;5118529;27;45461;-52
2022/05/08 03:08:22;;;;;;;;;33.67;22.67;;;;;15.01;63.45;102058.56;5118826;27;45352;-51
2022/05/08 03:13:37;;;;;;;;;31.33;25.67;;;;;14.93;63.03;102062.78;5118563;27;45283;-52
2022/05/08 03:16:08;;;;;;;;;37.00;26.67;;;;;14.89;62.27;102058.69;5118517;27;45314;-48
2022/05/08 03:18:38;;;;;;;;;37.33;32.00;;;;;14.85;63.28;102062.66;5118747;27;45374;-52
2022/05/08 03:21:05;;;;;;;;;33.33;26.67;;;;;14.82;64.04;102059.41;5117878;27;46430;-49
2022/05/08 03:23:30;;;;;;;;;42.33;33.67;;;;;14.75;64.02;102056.47;5118340;27;45346;-54
2022/05/08 03:25:56;;;;;;;;;32.00;28.00;;;;;14.77;64.29;102059.00;5118327;27;45479;-48
2022/05/08 03:28:21;;;;;;;;;30.67;28.33;;;;;14.75;63.52;102063.63;5118670;27;45414;-45
2022/05/08 03:30:47;;;;;;;;;39.33;32.33;;;;;14.74;63.71;102070.81;5118271;27;45818;-48
2022/05/08 03:33:13;;;;;;;;;40.00;31.33;;;;;14.73;64.05;102056.59;5118036;27;45236;-49
2022/05/08 03:35:39;;;;;;;;;45.00;32.67;;;;;14.71;64.06;102055.91;5099821;27;45639;-44
2022/05/08 03:38:06;;;;;;;;;43.67;33.67;;;;;14.73;64.64;102061.09;5118532;27;45472;-53
2022/05/08 03:40:32;;;;;;;;;39.67;35.67;;;;;14.73;65.02;102056.59;5117901;27;46154;-55
2022/05/08 03:42:58;;;;;;;;;46.67;35.00;;;;;14.75;64.18;102056.47;5118011;27;45449;-43
2022/05/08 03:45:24;;;;;;;;;41.67;33.67;;;;;14.73;64.75;102058.41;5117771;27;45430;-53
2022/05/08 03:47:51;;;;;;;;;43.33;35.00;;;;;14.75;64.62;102055.59;5118443;27;45154;-51
2022/05/08 03:50:17;;;;;;;;;53.33;36.33;;;;;14.76;64.38;102068.03;5117727;27;45404;-54
2022/05/08 03:52:42;;;;;;;;;45.00;37.25;;;;;14.77;64.40;102061.66;5117836;27;45282;-52
2022/05/08 03:55:08;;;;;;;;;43.67;37.67;;;;;14.77;64.65;102054.47;5117919;27;45640;-52
2022/05/08 03:57:33;;;;;;;;;33.33;27.67;;;;;14.78;63.00;102068.72;5118285;27;45450;-52
2022/05/08 03:59:59;;;;;;;;;49.00;36.33;;;;;14.71;63.45;102053.22;5117399;27;46411;-47
2022/05/08 04:02:24;;;;;;;;;48.00;37.33;;;;;14.67;64.06;102049.13;5117673;27;45310;-46
2022/05/08 04:04:50;;;;;;;;;52.67;37.67;;;;;14.71;64.23;102053.22;5118614;27;45410;-50
2022/05/08 04:07:15;;;;;;;;;52.00;38.33;;;;;14.72;64.72;102062.94;5121654;27;45260;-54
2022/05/08 04:09:40;;;;;;;;;44.67;35.00;;;;;14.75;65.04;102064.50;5121372;27;45957;-54
2022/05/08 04:12:06;;;;;;;;;45.00;35.00;;;;;14.72;64.09;102075.50;5121655;27;45439;-49
2022/05/08 04:14:31;;;;;;;;;47.33;37.33;;;;;14.73;64.96;102069.97;5121171;27;45349;-52
2022/05/08 04:16:57;;;;;;;;;48.00;35.50;;;;;14.72;64.42;102065.63;5121425;27;45363;-53
2022/05/08 04:19:22;;;;;;;;;50.00;39.25;;;;;14.76;64.88;102068.03;5121090;27;46973;-46
2022/05/08 04:21:47;;;;;;;;;53.67;40.67;;;;;14.77;63.92;102067.88;5119745;27;45587;-54
2022/05/08 04:24:19;;;;;;;;;50.25;39.25;;;;;14.78;64.67;102063.34;5120415;27;45370;-52
2022/05/08 04:26:46;;;;;;;;;48.33;33.67;;;;;14.80;64.86;102069.44;5121512;27;45455;-51
2022/05/08 04:29:11;;;;;;;;;53.50;39.75;;;;;14.77;64.65;102056.31;5121084;27;45444;-50
2022/05/08 04:31:37;;;;;;;;;49.00;36.67;;;;;14.82;64.17;102068.28;5121101;27;45207;-54
2022/05/08 04:34:03;;;;;;;;;44.00;37.67;;;;;14.83;63.31;102070.00;5121246;27;45348;-53
2022/05/08 04:36:29;;;;;;;;;49.00;37.33;;;;;14.84;63.67;102070.84;5121041;27;45300;-52
2022/05/08 04:38:54;;;;;;;;;56.25;39.00;;;;;14.85;64.88;102075.19;5120989;27;45247;-52
2022/05/08 04:41:20;;;;;;;;;52.75;38.25;;;;;14.86;64.37;102071.53;5120725;27;45263;-50
2022/05/08 04:43:45;;;;;;;;;41.75;34.25;;;;;14.88;63.99;102069.56;5120872;27;45282;-54
2022/05/08 04:46:11;;;;;;;;;50.00;35.00;;;;;14.87;64.96;102070.53;5121081;27;45240;-54
2022/05/08 04:48:38;;;;;;;;;51.50;41.75;;;;;14.88;64.64;102072.25;5120685;27;45448;-52
2022/05/08 04:51:03;;;;;;;;;57.25;41.75;;;;;14.87;64.83;102079.41;5120380;27;45403;-48
2022/05/08 04:53:30;;;;;;;;;54.00;40.00;;;;;14.87;64.56;102079.41;5120722;27;45374;-54
2022/05/08 04:55:56;;;;;;;;;51.00;38.25;;;;;14.87;64.85;102089.28;5120903;27;45417;-54
2022/05/08 04:58:21;;;;;;;;;58.00;40.50;;;;;14.87;64.63;102089.28;5120255;27;45247;-55
2022/05/08 05:00:46;;;;;;;;;48.75;40.25;;;;;14.87;64.17;102084.75;5120564;27;45240;-54
2022/05/08 05:03:12;;;;;;;;;54.50;38.00;;;;;14.89;64.44;102095.38;5120582;27;45814;-54
2022/05/08 05:05:37;;;;;;;;;57.25;39.50;;;;;14.85;63.91;102099.31;5120572;27;45423;-46
2022/05/08 05:08:06;;;;;;;;;57.50;41.50;;;;;14.85;64.72;102096.63;5120435;27;46116;-49
2022/05/08 05:10:31;;;;;;;;;55.75;41.50;;;;;14.85;64.03;102102.00;5120380;27;45667;-53
2022/05/08 05:12:56;;;;;;;;;54.75;41.25;;;;;14.85;65.27;102112.72;5120224;27;45342;-48
2022/05/08 05:15:24;;;;;;;;;52.75;41.00;;;;;14.87;64.98;102110.72;5120717;27;45354;-53
2022/05/08 05:17:52;;;;;;;;;56.25;43.75;;;;;14.87;65.18;102116.06;5101025;27;46321;-51
2022/05/08 05:20:17;;;;;;;;;54.50;39.50;;;;;14.92;65.17;102119.19;5120208;27;45410;-43
2022/05/08 05:22:43;;;;;;;;;53.25;41.50;;;;;14.93;64.81;102116.38;5119764;27;45531;-54
2022/05/08 05:25:09;;;;;;;;;58.00;39.25;;;;;14.95;63.88;102118.91;5120453;27;45304;-51
2022/05/08 05:27:34;;;;;;;;;51.50;41.00;;;;;14.96;64.67;102123.28;5119247;27;46293;-53
2022/05/08 05:29:59;;;;;;;;;52.25;40.25;;;;;14.95;64.33;102117.06;5119971;27;45305;-51
2022/05/08 05:32:25;;;;;;;;;54.00;41.00;;;;;14.98;64.18;102121.31;5120191;27;45488;-53
2022/05/08 05:34:51;;;;;;;;;54.75;43.25;;;;;14.97;64.33;102116.94;5120402;27;45373;-48
2022/05/08 05:37:16;;;;;;;;;53.75;42.75;;;;;14.98;64.70;102126.66;5119241;27;46095;-48
2022/05/08 05:39:42;;;;;;;;;54.50;41.75;;;;;15.02;64.92;102130.75;5118815;27;45332;-50
2022/05/08 05:42:08;;;;;;;;;50.75;39.25;;;;;15.06;64.28;102142.03;5120036;27;45344;-48
2022/05/08 05:44:34;;;;;;;;;55.50;43.00;;;;;15.06;64.85;102134.00;5120136;27;45424;-51
2022/05/08 05:49:43;;;;;;;;;56.00;39.25;;;;;15.16;64.43;102138.34;5119848;27;45388;-48
2022/05/08 05:52:08;;;;;;;;;52.25;40.25;;;;;15.17;64.56;102136.53;5119701;27;45588;-53
2022/05/08 05:54:35;;;;;;;;;46.50;37.00;;;;;15.13;64.56;102133.28;5101678;27;45415;-45
2022/05/08 05:57:00;;;;;;;;;55.50;36.00;;;;;15.23;64.36;102144.84;5119225;27;45310;-50
2022/05/08 05:59:25;;;;;;;;;59.00;41.75;;;;;15.26;64.42;102137.50;5119323;27;45444;-49
2022/05/08 06:01:51;;;;;;;;;52.00;36.75;;;;;15.30;63.91;102149.63;5119774;27;45820;-50
2022/05/08 06:04:16;;;;;;;;;58.00;44.50;;;;;15.28;63.91;102148.94;5119899;27;45432;-42
2022/05/08 06:06:41;;;;;;;;;55.75;41.00;;;;;15.29;64.05;102148.75;5119389;27;45343;-53
2022/05/08 06:09:07;;;;;;;;;54.25;40.25;;;;;15.30;64.53;102145.13;5119458;27;45282;-51
2022/05/08 06:11:33;;;;;;;;;56.50;42.00;;;;;15.38;63.77;102155.09;5119504;27;45311;-51
2022/05/08 06:13:58;;;;;;;;;55.25;42.75;;;;;15.42;64.02;102153.81;5119573;27;45435;-46
2022/05/08 06:16:24;;;;;;;;;58.00;40.00;;;;;15.45;63.90;102148.19;5119317;27;46142;-54
2022/05/08 06:18:49;;;;;;;;;52.00;38.00;;;;;15.50;64.12;102155.78;5119230;27;45294;-50
2022/05/08 06:21:14;;;;;;;;;53.75;41.50;;;;;15.54;63.79;102151.84;5100841;27;45220;-51
2022/05/08 06:23:40;;;;;;;;;48.67;38.00;;;;;15.50;63.81;102145.91;5119721;27;45337;-44
2022/05/08 06:26:05;;;;;;;;;55.75;43.25;;;;;15.61;63.24;102153.78;5119080;27;46027;-51
2022/05/08 06:28:32;;;;;;;;;51.25;36.50;;;;;15.63;63.38;102153.63;5118205;27;45405;-44
2022/05/08 06:30:58;;;;;;;;;60.25;41.00;;;;;15.64;63.02;102153.53;5119812;27;45302;-40
2022/05/08 06:33:23;;;;;;;;;56.33;40.00;;;;;15.66;63.11;102159.59;5119365;27;45534;-51
2022/05/08 06:35:48;;;;;;;;;53.67;39.33;;;;;15.69;63.02;102164.69;5118996;27;45993;-41
2022/05/08 06:38:14;;;;;;;;;54.33;38.33;;;;;15.69;63.18;102162.00;5118930;27;45307;-46
2022/05/08 06:40:40;;;;;;;;;55.50;41.50;;;;;15.67;63.49;102149.72;5119132;27;45675;-53
2022/05/08 06:43:07;;;;;;;;;50.33;38.33;;;;;15.71;62.85;102157.31;5119552;27;45386;-55
2022/05/08 06:45:33;;;;;;;;;57.75;39.25;;;;;15.74;63.29;102166.09;5118755;27;45324;-53
2022/05/08 06:47:58;;;;;;;;;51.33;40.00;;;;;15.76;63.21;102164.97;5118932;27;45267;-49
2022/05/08 06:50:23;;;;;;;;;55.00;39.67;;;;;15.79;62.85;102166.47;5118903;27;45444;-47
2022/05/08 06:52:49;;;;;;;;;50.67;39.00;;;;;15.79;62.42;102166.47;5119087;27;45172;-47
2022/05/08 06:55:14;;;;;;;;;57.00;41.75;;;;;15.77;62.58;102169.31;5118511;27;45564;-50
2022/05/08 06:57:40;;;;;;;;;58.25;42.00;;;;;15.68;62.56;102151.44;5118747;27;45293;-43
2022/05/08 07:02:50;;;;;;;;;53.67;40.00;;;;;15.80;63.06;102173.53;5119061;27;45238;-52
2022/05/08 07:05:16;;;;;;;;;53.00;38.00;;;;;15.82;62.84;102177.78;5118220;27;46918;-48
2022/05/08 07:07:42;;;;;;;;;51.33;38.67;;;;;15.84;62.79;102182.97;5117538;27;45417;-51
2022/05/08 07:10:08;;;;;;;;;45.33;38.33;;;;;15.83;63.11;102181.31;5118631;27;45361;-51
2022/05/08 07:12:36;;;;;;;;;54.33;39.33;;;;;15.75;62.78;102160.56;5118617;27;45489;-41
2022/05/08 07:15:03;;;;;;;;;54.00;39.67;;;;;15.90;62.65;102187.78;5118237;27;47190;-47
2022/05/08 07:17:29;;;;;;;;;54.00;37.00;;;;;15.92;62.83;102177.72;5118241;27;45452;-53
2022/05/08 07:19:55;;;;;;;;;54.33;39.00;;;;;15.86;62.83;102170.28;5118410;27;45258;-44
2022/05/08 07:22:22;;;;;;;;;54.00;38.00;;;;;15.92;62.38;102185.78;5118510;27;45585;-44
2022/05/08 07:24:47;;;;;;;;;52.00;39.33;;;;;15.95;62.62;102193.56;5118118;27;46136;-53
2022/05/08 07:27:12;;;;;;;;;56.50;39.75;;;;;15.88;62.56;102176.34;5118164;27;45427;-42
2022/05/08 07:29:41;;;;;;;;;45.00;37.00;;;;;15.92;62.23;102194.69;5118488;27;45426;-54
2022/05/08 07:32:07;;;;;;;;;49.67;37.00;;;;;15.93;62.21;102192.88;5118435;27;45412;-44
2022/05/08 07:37:16;;;;;;;;;50.00;37.67;;;;;16.00;62.43;102196.63;5117852;27;45387;-44
2022/05/08 07:39:41;;;;;;;;;52.00;40.33;;;;;16.02;61.94;102196.50;5118665;27;45389;-42
2022/05/08 07:42:07;;;;;;;;;44.67;35.67;;;;;16.04;62.06;102192.66;5122047;27;45257;-43
2022/05/08 07:44:32;;;;;;;;;52.67;38.33;;;;;16.10;61.87;102197.47;5121511;27;47218;-40
2022/05/08 07:46:58;;;;;;;;;53.00;40.00;;;;;16.13;62.08;102197.16;5121642;27;45166;-38
2022/05/08 07:49:24;;;;;;;;;55.67;37.00;;;;;16.17;62.21;102201.22;5121811;27;45274;-47
2022/05/08 07:51:49;;;;;;;;;52.67;38.67;;;;;16.19;61.80;102199.25;5121682;27;45420;-47
2022/05/08 07:54:14;;;;;;;;;52.67;37.00;;;;;16.28;62.29;102197.53;5120654;27;45365;-47
2022/05/08 07:56:40;;;;;;;;;45.33;34.00;;;;;16.36;62.12;102207.53;5121436;27;45307;-53
2022/05/08 07:59:05;;;;;;;;;52.00;40.00;;;;;16.41;61.89;102202.53;5121116;27;45243;-39
2022/05/08 08:01:30;;;;;;;;;47.33;38.00;;;;;16.52;61.38;102199.66;5121855;27;45388;-48
2022/05/08 08:03:56;;;;;;;;;45.00;37.00;;;;;16.60;61.38;102205.13;5120755;27;45377;-45
2022/05/08 08:06:21;;;;;;;;;51.00;37.00;;;;;16.66;61.00;102203.69;5121429;27;45230;-40
2022/05/08 08:08:47;;;;;;;;;44.67;35.33;;;;;16.69;60.74;102209.59;5121233;27;45509;-44
2022/05/08 08:11:13;;;;;;;;;44.00;33.33;;;;;16.66;60.57;102192.94;5121647;27;45421;-53
2022/05/08 08:13:38;;;;;;;;;51.33;40.00;;;;;16.74;60.51;102208.34;5121189;27;45396;-53
2022/05/08 08:16:04;;;;;;;;;49.33;36.33;;;;;16.76;60.58;102212.53;5121176;27;45366;-52
2022/05/08 08:18:30;;;;;;;;;49.33;35.00;;;;;16.81;60.22;102214.78;5121315;27;45325;-40
2022/05/08 08:20:56;;;;;;;;;43.67;36.00;;;;;16.82;60.10;102213.78;5120178;27;45394;-46
2022/05/08 08:23:22;;;;;;;;;48.33;36.00;;;;;16.86;60.16;102207.97;5120783;27;45795;-49
2022/05/08 08:25:48;;;;;;;;;50.33;38.67;;;;;16.93;60.08;102218.94;5121142;27;45301;-46
2022/05/08 08:28:14;;;;;;;;;49.67;39.00;;;;;17.01;59.69;102218.19;5121132;27;45303;-46
2022/05/08 08:30:39;;;;;;;;;55.00;40.00;;;;;17.00;59.67;102209.25;5121417;27;45295;-47
2022/05/08 08:33:04;;;;;;;;;51.33;36.67;;;;;17.00;59.56;102189.59;5120889;27;45384;-42
2022/05/08 08:35:30;;;;;;;;;53.67;36.33;;;;;17.15;59.54;102207.75;5120875;27;45277;-41
2022/05/08 08:37:56;;;;;;;;;44.33;35.00;;;;;17.21;59.25;102212.50;5120853;27;45472;-48
2022/05/08 08:40:22;;;;;;;;;61.33;41.67;;;;;17.27;59.09;102211.00;5120839;27;45409;-49
2022/05/08 08:42:49;;;;;;;;;49.67;39.67;;;;;17.31;59.08;102209.72;5120863;27;47087;-41
2022/05/08 08:48:03;;;;;;;;;48.33;36.00;;;;;17.36;58.67;102214.63;5120733;27;45283;-46
2022/05/08 08:50:29;;;;;;;;;56.33;40.00;;;;;17.35;58.43;102207.56;5120924;27;45208;-43
2022/05/08 08:52:57;;;;;;;;;50.33;38.00;;;;;17.43;58.43;102213.00;5119316;27;46210;-44
2022/05/08 08:55:23;;;;;;;;;48.67;37.67;;;;;17.50;58.08;102211.38;5101973;27;45443;-44
2022/05/08 08:57:50;;;;;;;;;48.00;38.67;;;;;17.57;58.24;102212.47;5120600;27;45475;-45
2022/05/08 09:00:17;;;;;;;;;49.33;36.67;;;;;17.71;57.78;102211.03;5120571;27;45288;-41
2022/05/08 09:02:44;;;;;;;;;50.00;35.33;;;;;17.83;57.30;102208.97;5120312;27;46111;-42
2022/05/08 09:05:10;;;;;;;;;50.67;34.33;;;;;18.00;56.94;102201.84;5120300;27;45303;-40
2022/05/08 09:07:38;;;;;;;;;44.00;35.33;;;;;18.10;56.62;102200.69;5120097;27;45290;-49
2022/05/08 09:10:07;;;;;;;;;49.67;38.33;;;;;18.15;56.37;102202.91;5120343;27;45483;-49
2022/05/08 09:12:33;;;;;;;;;47.33;35.67;;;;;18.21;56.46;102196.88;5101344;27;45346;-46
2022/05/08 09:14:58;;;;;;;;;47.67;37.00;;;;;18.30;56.11;102208.53;5120024;27;45202;-44
2022/05/08 09:17:24;;;;;;;;;48.67;39.00;;;;;18.37;55.83;102207.75;5120489;27;45361;-45
2022/05/08 09:19:49;;;;;;;;;47.33;35.67;;;;;18.47;55.80;102207.59;5120453;27;45210;-40
2022/05/08 09:22:18;;;;;;;;;53.33;41.00;;;;;18.59;55.44;102213.53;5120195;27;46039;-53
2022/05/08 09:24:54;;;;;;;;;48.67;35.67;;;;;18.65;55.17;102211.00;5120052;27;45404;-49
2022/05/08 09:27:19;;;;;;;;;48.33;37.00;;;;;18.73;55.05;102212.09;5120249;27;45519;-52
2022/05/08 09:29:46;;;;;;;;;48.67;36.67;;;;;18.86;54.98;102207.06;5120116;27;45461;-51
2022/05/08 09:32:37;;;;;;;;;49.00;37.33;;;;;19.08;54.67;102206.41;5119974;27;45469;-45
2022/05/08 09:35:03;;;;;;;;;50.33;35.00;;;;;19.24;53.94;102208.28;5119782;27;45705;-44
2022/05/08 09:37:28;;;;;;;;;50.00;37.67;;;;;19.32;53.47;102207.44;5119976;27;45325;-43
2022/05/08 09:40:19;;;;;;;;;46.33;35.00;;;;;19.47;53.79;102215.69;5119928;27;45481;-46
2022/05/08 09:42:45;;;;;;;;;46.00;35.00;;;;;19.44;53.09;102196.13;5119946;27;45433;-43
2022/05/08 09:45:11;;;;;;;;;44.33;37.00;;;;;19.51;52.86;102207.13;5119724;27;45223;-41
2022/05/08 09:47:42;;;;;;;;;52.67;38.00;;;;;19.81;52.71;102215.53;5119713;27;45226;-45
2022/05/08 09:50:10;;;;;;;;;42.00;34.67;;;;;20.24;52.36;102191.78;5120099;27;45451;-46
2022/05/08 09:52:40;;;;;;;;;44.00;38.00;;;;;20.80;51.06;102187.94;5119137;27;45295;-51
2022/05/08 09:55:10;;;;;;;;;43.33;35.67;;;;;21.33;49.45;102193.50;5119528;27;45426;-45
2022/05/08 09:57:36;;;;;;;;;45.67;34.67;;;;;21.91;48.36;102181.06;5119690;27;45346;-44
2022/05/08 10:00:03;;;;;;;;;47.67;37.00;;;;;22.82;46.47;102184.31;5119487;27;45335;-44
2022/05/08 10:02:29;;;;;;;;;47.67;35.00;;;;;22.59;46.80;102195.34;5119111;27;46370;-51
2022/05/08 10:04:55;;;;;;;;;39.67;33.33;;;;;22.46;46.89;102187.03;5119529;27;45451;-49
2022/05/08 10:07:21;;;;;;;;;45.67;33.67;;;;;22.49;47.44;102195.63;5119740;27;45413;-54
2022/05/08 10:15:19;;;;;;;;;46.00;35.33;;;;;22.95;45.60;102183.66;5119108;27;45305;-53
2022/05/08 10:17:45;;;;;;;;;38.67;34.33;;;;;23.15;45.26;102182.81;5118878;27;45248;-49
2022/05/08 10:20:10;;;;;;;;;43.67;33.00;;;;;23.24;44.95;102182.66;5119486;27;45424;-56
2022/05/08 10:22:56;;;;;;;;;44.00;33.33;;;;;23.81;44.43;102176.25;5118044;27;45357;-52
2022/05/08 10:25:21;;;;;;;;;42.33;33.67;;;;;23.74;43.83;102184.34;5118665;27;45287;-49
2022/05/08 10:28:06;;;;;;;;;46.67;36.00;;;;;23.68;44.06;102173.41;5119350;27;45904;-48
2022/05/08 10:30:32;;;;;;;;;44.67;36.00;;;;;24.58;42.71;102177.88;5119617;27;45323;-47
2022/05/08 10:32:58;;;;;;;;;47.67;36.33;;;;;25.66;40.97;102172.31;5119055;27;47024;-42
2022/05/08 10:35:26;;;;;;;;;45.67;36.00;;;;;25.60;40.38;102179.44;5119137;27;45453;-43
2022/05/08 10:38:21;;;;;;;;;45.33;35.33;;;;;25.52;42.07;102166.88;5118868;27;45412;-48
2022/05/08 10:40:47;;;;;;;;;44.00;33.00;;;;;25.56;40.73;102168.13;5110058;27;45716;-51
2022/05/08 10:43:12;;;;;;;;;45.00;35.00;;;;;25.50;40.49;102163.53;5118938;27;45956;-47
2022/05/08 10:45:41;;;;;;;;;46.33;36.00;;;;;25.34;40.17;102163.97;5118951;27;45468;-46
2022/05/08 10:48:07;;;;;;;;;46.00;35.33;;;;;25.68;39.45;102164.78;5118398;27;45185;-50
2022/05/08 10:50:37;;;;;;;;;49.33;38.33;;;;;25.31;40.00;102162.50;5119216;27;45350;-50
2022/05/08 10:53:03;;;;;;;;;39.00;32.00;;;;;24.88;40.45;102162.84;5118734;27;45437;-46
2022/05/08 10:55:28;;;;;;;;;40.00;34.00;;;;;25.45;40.24;102157.91;5118506;27;45311;-47
2022/05/08 10:57:55;;;;;;;;;41.67;35.00;;;;;25.33;40.44;102163.13;5119126;27;45355;-53
2022/05/08 11:00:27;;;;;;;;;47.67;38.00;;;;;25.84;40.27;102159.72;5118776;27;45233;-46
2022/05/08 11:02:55;;;;;;;;;36.00;32.33;;;;;26.62;38.31;102156.88;5118711;27;46159;-55
2022/05/08 11:05:31;;;;;;;;;43.33;35.00;;;;;27.40;38.23;102158.44;5118391;27;45325;-51
2022/05/08 11:08:02;;;;;;;;;43.00;35.00;;;;;28.66;36.59;102153.41;5118674;27;45238;-49
2022/05/08 11:10:30;;;;;;;;;40.00;35.00;;;;;28.93;34.51;102151.94;5118527;27;45459;-54
2022/05/08 11:13:06;;;;;;;;;39.25;33.25;;;;;28.94;33.72;102156.31;5118406;27;47113;-51
2022/05/08 11:15:36;;;;;;;;;43.75;32.75;;;;;29.70;33.40;102162.84;5117765;27;45405;-53
2022/05/08 11:18:07;;;;;;;;;38.00;31.50;;;;;30.40;31.46;102144.59;5118734;27;45272;-53
2022/05/08 11:20:36;;;;;;;;;40.75;34.00;;;;;29.87;33.17;102153.91;5118616;27;45380;-52
2022/05/08 11:23:05;;;;;;;;;45.75;34.50;;;;;30.24;32.11;102151.69;5118261;27;45536;-50
2022/05/08 11:25:32;;;;;;;;;42.00;33.00;;;;;29.82;32.23;102157.38;5117632;27;45307;-53
2022/05/08 11:27:58;;;;;;;;;45.25;34.25;;;;;29.28;33.21;102154.72;5118447;27;45400;-55
2022/05/08 11:30:32;;;;;;;;;39.00;33.75;;;;;28.65;34.71;102154.47;5118514;27;45430;-51
2022/05/08 11:36:07;;;;;;;;;48.25;37.50;;;;;27.32;36.13;102148.63;5118095;27;45443;-53